Time;durP1;ratioP1;P1;durP2;ratioP2;P2;SDS_P1;SDS_P2;PMS_P1;PMS_P2;Temp;Humidity;BMP_temperature;BMP_pressure;BME280_temperature;BME280_humidity;BME280_pressure;Samples;Min_cycle;Max_cycle;Signal;HPM_P1;HPM_P2
2022/07/22 00:01:34;;;;;;;10.55;6.40;;;;;;;;;;5041180;28;20029;-86
2022/07/22 00:03:59;;;;;;;6.50;5.72;;;;;;;;;;5024015;28;20037;-85
2022/07/22 00:06:25;;;;;;;8.60;5.80;;;;;;;;;;5042385;28;20605;-86
2022/07/22 00:08:51;;;;;;;8.00;5.93;;;;;;;;;;5041467;28;20136;-85
2022/07/22 00:11:16;;;;;;;7.80;6.13;;;;;;;;;;5040698;28;20087;-87
2022/07/22 00:13:42;;;;;;;9.73;6.10;;;;;;;;;;5041472;28;20034;-87
2022/07/22 00:16:07;;;;;;;7.85;5.85;;;;;;;;;;5040484;28;20045;-86
2022/07/22 00:18:33;;;;;;;7.93;5.82;;;;;;;;;;5039407;28;20048;-86
2022/07/22 00:20:58;;;;;;;8.07;5.85;;;;;;;;;;5042015;28;20111;-86
2022/07/22 00:23:24;;;;;;;6.85;5.57;;;;;;;;;;5039966;28;20052;-86
2022/07/22 00:25:49;;;;;;;10.32;6.15;;;;;;;;;;5039522;28;20490;-86
2022/07/22 00:28:15;;;;;;;8.95;6.20;;;;;;;;;;5039910;28;20513;-86
2022/07/22 00:30:41;;;;;;;7.80;5.95;;;;;;;;;;5039068;28;20041;-86
2022/07/22 00:33:06;;;;;;;8.40;5.75;;;;;;;;;;5041384;28;20037;-86
2022/07/22 00:35:32;;;;;;;8.75;6.30;;;;;;;;;;5039219;28;20049;-86
2022/07/22 00:37:57;;;;;;;10.82;7.28;;;;;;;;;;5040192;28;20583;-86
2022/07/22 00:40:23;;;;;;;10.45;7.18;;;;;;;;;;5023531;28;20033;-86
2022/07/22 00:42:49;;;;;;;10.50;6.97;;;;;;;;;;5041004;28;20152;-86
2022/07/22 00:45:14;;;;;;;8.27;6.63;;;;;;;;;;5040306;28;20021;-86
2022/07/22 00:47:40;;;;;;;8.48;6.28;;;;;;;;;;5039242;28;20076;-85
2022/07/22 00:50:06;;;;;;;9.52;5.93;;;;;;;;;;5040042;28;20029;-85
2022/07/22 00:52:33;;;;;;;10.23;6.53;;;;;;;;;;5040758;28;20060;-86
2022/07/22 00:54:59;;;;;;;9.02;6.22;;;;;;;;;;5022233;28;20406;-85
2022/07/22 00:57:25;;;;;;;7.63;6.20;;;;;;;;;;5022325;28;20037;-86
2022/07/22 00:59:51;;;;;;;9.55;6.70;;;;;;;;;;5022944;28;20036;-85
2022/07/22 01:02:17;;;;;;;8.05;6.40;;;;;;;;;;5039392;28;20033;-86
2022/07/22 01:04:43;;;;;;;11.35;6.55;;;;;;;;;;5038200;28;20084;-86
2022/07/22 01:07:08;;;;;;;7.70;6.63;;;;;;;;;;5040812;28;20040;-86
2022/07/22 01:09:34;;;;;;;11.68;6.75;;;;;;;;;;5040150;28;20037;-86
2022/07/22 01:12:01;;;;;;;10.15;7.13;;;;;;;;;;5040650;28;20077;-85
2022/07/22 01:14:26;;;;;;;10.07;7.35;;;;;;;;;;5022339;28;20469;-86
2022/07/22 01:16:52;;;;;;;10.80;7.50;;;;;;;;;;5037033;28;20041;-86
2022/07/22 01:19:18;;;;;;;11.77;8.20;;;;;;;;;;5021925;28;20037;-85
2022/07/22 01:21:43;;;;;;;11.23;7.97;;;;;;;;;;5039633;28;20034;-86
2022/07/22 01:24:09;;;;;;;11.48;7.63;;;;;;;;;;5020180;28;20060;-86
2022/07/22 01:26:34;;;;;;;10.63;8.27;;;;;;;;;;5039300;28;20405;-86
2022/07/22 01:29:00;;;;;;;13.35;8.57;;;;;;;;;;5022551;28;20087;-86
2022/07/22 01:31:27;;;;;;;12.75;8.90;;;;;;;;;;5021849;28;20041;-86
2022/07/22 01:33:54;;;;;;;14.35;8.38;;;;;;;;;;5022584;28;20056;-86
2022/07/22 01:36:20;;;;;;;13.07;8.20;;;;;;;;;;5022208;28;20029;-86
2022/07/22 01:38:45;;;;;;;11.57;7.85;;;;;;;;;;5022352;28;20025;-86
2022/07/22 01:41:11;;;;;;;13.10;8.05;;;;;;;;;;5021410;28;20032;-86
2022/07/22 01:43:38;;;;;;;11.20;7.75;;;;;;;;;;5037933;28;20055;-86
2022/07/22 01:46:04;;;;;;;11.10;8.40;;;;;;;;;;5022280;28;20036;-86
2022/07/22 01:48:31;;;;;;;12.65;8.75;;;;;;;;;;5022169;28;20128;-86
2022/07/22 01:51:06;;;;;;;11.75;8.32;;;;;;;;;;5039895;28;20029;-85
2022/07/22 01:53:32;;;;;;;11.65;8.02;;;;;;;;;;5037842;28;20034;-86
2022/07/22 01:55:58;;;;;;;10.55;8.40;;;;;;;;;;5038320;28;20069;-86
2022/07/22 01:58:24;;;;;;;11.20;7.93;;;;;;;;;;5022014;28;20029;-86
2022/07/22 02:00:51;;;;;;;9.70;7.82;;;;;;;;;;5021977;28;20052;-85
2022/07/22 02:03:16;;;;;;;11.57;7.97;;;;;;;;;;5038965;28;20029;-85
2022/07/22 02:05:42;;;;;;;9.30;7.95;;;;;;;;;;5021851;28;20036;-85
2022/07/22 02:08:17;;;;;;;10.73;8.10;;;;;;;;;;5021883;28;20029;-85
2022/07/22 02:11:03;;;;;;;10.75;8.23;;;;;;;;;;5038965;28;20053;-86
2022/07/22 02:13:29;;;;;;;10.75;7.90;;;;;;;;;;5038111;28;20029;-86
2022/07/22 02:15:54;;;;;;;10.68;7.70;;;;;;;;;;5021618;28;20033;-85
2022/07/22 02:18:20;;;;;;;10.48;7.68;;;;;;;;;;5020968;28;20026;-86
2022/07/22 02:20:46;;;;;;;13.02;7.80;;;;;;;;;;5039709;28;20041;-86
2022/07/22 02:23:13;;;;;;;11.20;7.63;;;;;;;;;;5039433;28;20055;-86
2022/07/22 02:25:41;;;;;;;9.88;7.18;;;;;;;;;;5021514;28;20093;-86
2022/07/22 02:28:07;;;;;;;11.93;7.63;;;;;;;;;;5037774;28;20050;-86
2022/07/22 02:30:33;;;;;;;11.18;8.02;;;;;;;;;;5021356;28;20505;-86
2022/07/22 02:32:58;;;;;;;10.80;7.85;;;;;;;;;;5038255;28;20087;-86
2022/07/22 02:35:24;;;;;;;9.77;7.35;;;;;;;;;;5038934;28;20095;-86
2022/07/22 02:37:50;;;;;;;9.65;7.40;;;;;;;;;;5041442;28;20450;-86
2022/07/22 02:40:16;;;;;;;12.02;8.02;;;;;;;;;;5043626;28;20055;-86
2022/07/22 02:42:42;;;;;;;10.95;7.57;;;;;;;;;;5025910;28;20065;-86
2022/07/22 02:45:08;;;;;;;10.13;6.78;;;;;;;;;;5024767;28;20120;-86
2022/07/22 02:47:34;;;;;;;10.23;7.45;;;;;;;;;;5043310;28;20033;-85
2022/07/22 02:50:01;;;;;;;13.30;7.90;;;;;;;;;;5043147;28;20375;-86
2022/07/22 02:52:27;;;;;;;9.88;7.80;;;;;;;;;;5026035;28;20057;-86
2022/07/22 02:54:53;;;;;;;9.50;7.47;;;;;;;;;;5041786;28;20064;-86
2022/07/22 02:57:18;;;;;;;9.63;7.70;;;;;;;;;;5025251;28;20060;-86
2022/07/22 02:59:45;;;;;;;12.75;8.00;;;;;;;;;;5025162;28;20494;-86
2022/07/22 03:02:12;;;;;;;14.30;8.30;;;;;;;;;;5024057;28;20033;-86
2022/07/22 03:04:38;;;;;;;8.20;6.88;;;;;;;;;;5040834;28;20060;-86
2022/07/22 03:07:03;;;;;;;9.27;7.05;;;;;;;;;;5024591;28;20033;-86
2022/07/22 03:09:30;;;;;;;10.38;7.32;;;;;;;;;;5024480;28;20046;-86
2022/07/22 03:11:55;;;;;;;10.43;7.13;;;;;;;;;;5024629;28;20029;-85
2022/07/22 03:14:22;;;;;;;8.75;6.53;;;;;;;;;;5024228;28;20056;-85
2022/07/22 03:16:47;;;;;;;9.18;6.82;;;;;;;;;;5023464;28;20037;-85
2022/07/22 03:19:13;;;;;;;9.57;6.72;;;;;;;;;;5024796;28;20029;-85
2022/07/22 03:21:39;;;;;;;9.63;6.68;;;;;;;;;;5041761;28;20061;-85
2022/07/22 03:24:04;;;;;;;9.25;6.63;;;;;;;;;;5023634;28;20041;-85
2022/07/22 03:26:31;;;;;;;8.23;6.60;;;;;;;;;;5024480;28;20416;-84
2022/07/22 03:28:56;;;;;;;9.05;6.85;;;;;;;;;;5041820;28;20037;-85
2022/07/22 03:31:22;;;;;;;8.48;6.90;;;;;;;;;;5024413;28;20037;-85
2022/07/22 03:33:49;;;;;;;8.25;6.50;;;;;;;;;;5024456;28;20049;-84
2022/07/22 03:36:14;;;;;;;8.38;6.63;;;;;;;;;;5040891;28;20029;-85
2022/07/22 03:38:43;;;;;;;8.30;6.68;;;;;;;;;;5024095;28;20029;-85
2022/07/22 03:41:09;;;;;;;11.13;6.82;;;;;;;;;;5041688;28;20040;-85
2022/07/22 03:43:35;;;;;;;8.75;6.93;;;;;;;;;;5041005;28;20041;-85
2022/07/22 03:46:02;;;;;;;9.57;6.65;;;;;;;;;;5023083;28;20103;-85
2022/07/22 03:48:27;;;;;;;8.65;6.75;;;;;;;;;;5039827;28;20033;-85
2022/07/22 03:50:53;;;;;;;8.55;6.85;;;;;;;;;;5023841;28;20038;-85
2022/07/22 03:53:20;;;;;;;9.52;6.60;;;;;;;;;;5040637;28;20037;-85
2022/07/22 03:55:46;;;;;;;11.00;7.03;;;;;;;;;;5022814;28;20132;-85
2022/07/22 03:58:11;;;;;;;9.38;6.22;;;;;;;;;;5041908;28;20057;-85
2022/07/22 04:00:38;;;;;;;10.20;6.97;;;;;;;;;;5023334;28;20044;-85
2022/07/22 04:03:05;;;;;;;11.25;6.90;;;;;;;;;;5041268;28;20075;-85
2022/07/22 04:05:49;;;;;;;10.27;6.97;;;;;;;;;;5040650;28;20071;-85
2022/07/22 04:08:24;;;;;;;10.85;6.90;;;;;;;;;;5040324;28;20491;-85
2022/07/22 04:10:49;;;;;;;8.57;6.70;;;;;;;;;;5022928;28;20037;-85
2022/07/22 04:13:15;;;;;;;8.48;7.10;;;;;;;;;;5038950;28;20009;-86
2022/07/22 04:15:51;;;;;;;8.48;7.15;;;;;;;;;;5022800;28;20120;-86
2022/07/22 04:18:17;;;;;;;10.35;7.20;;;;;;;;;;5039704;28;20041;-87
2022/07/22 04:20:44;;;;;;;13.90;7.45;;;;;;;;;;5039054;28;20116;-86
2022/07/22 04:23:23;;;;;;;10.52;7.35;;;;;;;;;;5022196;28;20037;-86
2022/07/22 04:25:58;;;;;;;9.35;6.90;;;;;;;;;;5038825;28;20029;-86
2022/07/22 04:28:23;;;;;;;10.02;7.18;;;;;;;;;;5023195;28;20041;-85
2022/07/22 04:30:49;;;;;;;11.15;6.97;;;;;;;;;;5040709;28;20029;-85
2022/07/22 04:33:15;;;;;;;10.45;7.00;;;;;;;;;;5022903;28;20033;-85
2022/07/22 04:35:41;;;;;;;8.77;7.22;;;;;;;;;;5022656;28;20056;-85
2022/07/22 04:38:11;;;;;;;9.85;7.47;;;;;;;;;;5023228;28;20509;-85
2022/07/22 04:40:40;;;;;;;10.82;7.07;;;;;;;;;;5023810;28;20057;-85
2022/07/22 04:43:06;;;;;;;11.85;7.53;;;;;;;;;;5039606;28;20048;-85
2022/07/22 04:45:32;;;;;;;14.65;7.90;;;;;;;;;;5022243;28;20030;-85
2022/07/22 04:47:58;;;;;;;10.82;7.72;;;;;;;;;;5023288;28;20561;-85
2022/07/22 04:50:23;;;;;;;12.63;7.88;;;;;;;;;;5022254;28;20068;-85
2022/07/22 04:52:55;;;;;;;10.13;7.70;;;;;;;;;;5040708;28;20091;-85
2022/07/22 04:55:20;;;;;;;9.68;7.03;;;;;;;;;;5022952;28;20026;-85
2022/07/22 04:57:46;;;;;;;10.27;7.00;;;;;;;;;;5023023;28;20021;-85
2022/07/22 05:00:15;;;;;;;13.52;7.25;;;;;;;;;;5024321;28;20106;-86
2022/07/22 05:02:47;;;;;;;9.80;6.97;;;;;;;;;;5023089;28;20033;-85
2022/07/22 05:05:13;;;;;;;9.52;7.40;;;;;;;;;;5005987;28;20036;-85
2022/07/22 05:07:39;;;;;;;8.32;6.72;;;;;;;;;;5023358;28;20026;-85
2022/07/22 05:10:06;;;;;;;13.85;7.35;;;;;;;;;;5023752;28;20049;-85
2022/07/22 05:12:32;;;;;;;8.85;6.95;;;;;;;;;;5007065;28;20097;-84
2022/07/22 05:14:59;;;;;;;9.98;6.95;;;;;;;;;;5004709;28;20032;-85
2022/07/22 05:17:25;;;;;;;9.73;6.40;;;;;;;;;;5019618;28;20034;-85
2022/07/22 05:20:23;;;;;;;11.05;7.22;;;;;;;;;;5024633;28;20029;-85
2022/07/22 05:22:49;;;;;;;12.23;7.82;;;;;;;;;;5021054;28;20402;-84
2022/07/22 05:25:20;;;;;;;9.38;7.25;;;;;;;;;;5021498;28;20115;-85
2022/07/22 05:27:53;;;;;;;11.52;7.53;;;;;;;;;;5022270;28;20571;-85
2022/07/22 05:30:39;;;;;;;9.68;7.32;;;;;;;;;;5038916;28;20092;-85
2022/07/22 05:33:06;;;;;;;13.88;7.97;;;;;;;;;;5020275;28;20091;-85
2022/07/22 05:35:52;;;;;;;11.48;7.43;;;;;;;;;;5026833;28;20052;-85
2022/07/22 05:38:19;;;;;;;10.60;6.75;;;;;;;;;;5020075;28;20032;-85
2022/07/22 05:40:45;;;;;;;16.52;7.35;;;;;;;;;;5038888;28;20029;-85
2022/07/22 05:43:10;;;;;;;13.75;7.63;;;;;;;;;;5019783;28;20037;-86
2022/07/22 05:45:36;;;;;;;9.40;6.55;;;;;;;;;;5003768;28;20090;-84
2022/07/22 05:48:03;;;;;;;13.07;7.20;;;;;;;;;;5020356;28;20120;-84
2022/07/22 05:50:33;;;;;;;8.82;6.97;;;;;;;;;;5020294;28;20379;-84
2022/07/22 05:52:58;;;;;;;11.73;6.72;;;;;;;;;;5038913;28;20059;-86
2022/07/22 05:55:24;;;;;;;11.25;6.78;;;;;;;;;;5036943;28;20544;-83
2022/07/22 05:57:52;;;;;;;11.50;6.93;;;;;;;;;;5021401;28;20070;-87
2022/07/22 06:00:17;;;;;;;10.00;6.60;;;;;;;;;;5020357;28;20029;-87
2022/07/22 06:02:43;;;;;;;8.80;6.53;;;;;;;;;;5019536;28;20053;-88
2022/07/22 06:05:14;;;;;;;8.40;6.65;;;;;;;;;;5020569;28;20034;-85
2022/07/22 06:07:41;;;;;;;10.07;6.55;;;;;;;;;;5002942;28;20037;-86
2022/07/22 06:10:09;;;;;;;9.25;6.13;;;;;;;;;;5020955;28;20067;-86
2022/07/22 06:12:34;;;;;;;10.23;6.78;;;;;;;;;;5007665;28;20037;-85
2022/07/22 06:15:00;;;;;;;9.80;5.82;;;;;;;;;;5023576;28;20041;-87
2022/07/22 06:17:26;;;;;;;7.68;5.68;;;;;;;;;;5005910;28;20498;-85
2022/07/22 06:19:52;;;;;;;8.13;6.00;;;;;;;;;;5020742;28;20045;-83
2022/07/22 06:22:19;;;;;;;9.07;6.47;;;;;;;;;;5021474;28;20517;-84
2022/07/22 06:24:45;;;;;;;7.13;5.63;;;;;;;;;;5020748;28;20037;-84
2022/07/22 06:27:11;;;;;;;9.82;5.85;;;;;;;;;;5020420;28;20065;-84
2022/07/22 06:29:36;;;;;;;12.20;5.80;;;;;;;;;;5020558;28;20065;-84
2022/07/22 06:32:02;;;;;;;7.95;6.50;;;;;;;;;;5038600;28;20033;-84
2022/07/22 06:34:29;;;;;;;8.65;6.55;;;;;;;;;;5003668;28;20029;-84
2022/07/22 06:37:01;;;;;;;6.57;5.68;;;;;;;;;;5020940;28;20041;-85
2022/07/22 06:39:27;;;;;;;12.13;6.70;;;;;;;;;;5004639;28;20041;-86
2022/07/22 06:41:55;;;;;;;8.70;6.35;;;;;;;;;;5038860;28;20628;-86
2022/07/22 06:44:47;;;;;;;8.82;6.05;;;;;;;;;;5013709;28;20124;-85
2022/07/22 06:47:35;;;;;;;7.50;6.20;;;;;;;;;;5037846;28;20066;-85
2022/07/22 06:50:05;;;;;;;9.73;6.60;;;;;;;;;;5020043;28;20033;-84
2022/07/22 06:52:31;;;;;;;9.75;6.05;;;;;;;;;;5019943;28;20040;-84
2022/07/22 06:54:59;;;;;;;7.22;6.25;;;;;;;;;;5020158;28;20029;-85
2022/07/22 06:57:29;;;;;;;9.43;6.60;;;;;;;;;;5036830;28;20037;-85
2022/07/22 06:59:54;;;;;;;9.38;6.60;;;;;;;;;;5020887;28;20025;-84
2022/07/22 07:02:21;;;;;;;7.78;6.10;;;;;;;;;;5020494;28;20116;-84
2022/07/22 07:04:47;;;;;;;8.48;6.40;;;;;;;;;;5003540;28;20061;-83
2022/07/22 07:07:12;;;;;;;7.78;6.18;;;;;;;;;;5004284;28;20477;-85
2022/07/22 07:09:48;;;;;;;9.65;6.82;;;;;;;;;;5019935;28;20040;-85
2022/07/22 07:12:24;;;;;;;10.05;6.43;;;;;;;;;;5020374;28;20059;-85
2022/07/22 07:15:08;;;;;;;9.20;6.47;;;;;;;;;;5037320;28;20417;-85
2022/07/22 07:17:34;;;;;;;8.13;6.07;;;;;;;;;;5003002;28;20410;-85
2022/07/22 07:20:01;;;;;;;13.45;6.88;;;;;;;;;;5003282;28;20038;-84
2022/07/22 07:22:27;;;;;;;7.97;6.50;;;;;;;;;;5003967;28;20701;-84
2022/07/22 07:24:53;;;;;;;7.90;5.97;;;;;;;;;;5019093;28;20025;-85
2022/07/22 07:27:18;;;;;;;8.15;5.90;;;;;;;;;;5019809;28;20421;-84
2022/07/22 07:29:46;;;;;;;9.25;6.43;;;;;;;;;;5019915;28;20116;-84
2022/07/22 07:32:12;;;;;;;7.47;6.10;;;;;;;;;;5020022;28;20038;-85
2022/07/22 07:34:38;;;;;;;7.72;6.07;;;;;;;;;;5019399;28;20029;-84
2022/07/22 07:37:04;;;;;;;10.13;6.95;;;;;;;;;;5018836;28;20040;-84
2022/07/22 07:39:29;;;;;;;11.57;6.65;;;;;;;;;;5019305;28;20021;-85
2022/07/22 07:41:55;;;;;;;9.13;6.47;;;;;;;;;;5020126;28;20049;-85
2022/07/22 07:44:21;;;;;;;9.18;6.40;;;;;;;;;;5019092;28;20120;-85
2022/07/22 07:46:47;;;;;;;10.48;6.25;;;;;;;;;;5019883;28;20056;-85
2022/07/22 07:49:13;;;;;;;10.88;6.28;;;;;;;;;;5019307;28;20068;-85
2022/07/22 07:51:39;;;;;;;11.23;6.78;;;;;;;;;;5030291;28;20033;-85
2022/07/22 07:54:04;;;;;;;12.90;6.38;;;;;;;;;;5030220;28;20037;-84
2022/07/22 07:56:30;;;;;;;10.93;6.13;;;;;;;;;;5036362;28;20021;-84
2022/07/22 07:58:56;;;;;;;10.00;6.38;;;;;;;;;;5040285;28;20583;-85
2022/07/22 08:01:22;;;;;;;12.70;6.95;;;;;;;;;;5040337;28;20554;-84
2022/07/22 08:03:48;;;;;;;8.65;6.35;;;;;;;;;;5040369;28;20112;-84
2022/07/22 08:06:14;;;;;;;9.95;6.50;;;;;;;;;;5039209;28;20071;-85
2022/07/22 08:08:40;;;;;;;11.55;6.80;;;;;;;;;;5039396;28;20060;-85
2022/07/22 08:11:13;;;;;;;11.40;6.90;;;;;;;;;;5024002;28;20124;-84
2022/07/22 08:14:14;;;;;;;9.95;6.63;;;;;;;;;;5056876;28;20040;-85
2022/07/22 08:16:59;;;;;;;10.23;6.47;;;;;;;;;;5055801;28;20051;-85
2022/07/22 08:19:24;;;;;;;8.85;5.82;;;;;;;;;;5023218;28;20033;-84
2022/07/22 08:21:50;;;;;;;12.05;6.55;;;;;;;;;;5039363;28;20032;-84
2022/07/22 08:24:31;;;;;;;10.32;6.97;;;;;;;;;;5038542;28;20101;-84
2022/07/22 08:26:59;;;;;;;10.02;6.30;;;;;;;;;;5039305;28;20028;-85
2022/07/22 08:29:25;;;;;;;8.50;6.00;;;;;;;;;;5038605;28;20392;-85
2022/07/22 08:31:51;;;;;;;7.85;6.07;;;;;;;;;;5039173;28;20060;-84
2022/07/22 08:34:18;;;;;;;9.82;5.90;;;;;;;;;;5037904;28;20124;-85
2022/07/22 08:36:44;;;;;;;10.25;6.28;;;;;;;;;;5022740;28;20056;-85
2022/07/22 08:39:10;;;;;;;11.00;5.88;;;;;;;;;;5038760;28;20040;-84
2022/07/22 08:41:38;;;;;;;8.27;6.68;;;;;;;;;;5038945;28;20213;-85
2022/07/22 08:44:05;;;;;;;9.35;6.30;;;;;;;;;;5038464;28;20029;-85
2022/07/22 08:46:31;;;;;;;8.57;6.47;;;;;;;;;;5056871;28;20037;-85
2022/07/22 08:49:16;;;;;;;10.95;6.15;;;;;;;;;;5059006;28;20484;-85
2022/07/22 08:51:49;;;;;;;10.27;6.97;;;;;;;;;;5038710;28;20417;-84
2022/07/22 08:54:19;;;;;;;9.73;6.78;;;;;;;;;;5038083;28;20029;-84
2022/07/22 08:56:49;;;;;;;9.60;6.45;;;;;;;;;;5056439;28;20037;-85
2022/07/22 08:59:15;;;;;;;11.02;7.40;;;;;;;;;;5021650;28;20028;-85
2022/07/22 09:02:07;;;;;;;9.48;6.93;;;;;;;;;;5040413;28;20033;-85
2022/07/22 09:04:57;;;;;;;9.00;6.93;;;;;;;;;;5017253;28;20040;-84
2022/07/22 09:07:43;;;;;;;11.77;7.20;;;;;;;;;;5017286;28;20383;-85
2022/07/22 09:10:44;;;;;;;12.07;7.30;;;;;;;;;;5010070;28;20045;-85
2022/07/22 09:13:32;;;;;;;10.38;7.80;;;;;;;;;;5036024;28;20697;-85
2022/07/22 09:16:11;;;;;;;12.98;7.05;;;;;;;;;;5018062;28;20056;-85
2022/07/22 09:19:08;;;;;;;9.00;7.22;;;;;;;;;;5005060;28;20033;-84
2022/07/22 09:21:56;;;;;;;9.60;6.93;;;;;;;;;;5033003;28;20558;-85
2022/07/22 09:24:31;;;;;;;9.38;7.70;;;;;;;;;;5034153;28;20400;-84
2022/07/22 09:27:27;;;;;;;12.68;7.60;;;;;;;;;;5034675;28;20063;-84
2022/07/22 09:30:26;;;;;;;11.40;7.28;;;;;;;;;;5035352;28;20504;-84
2022/07/22 09:32:59;;;;;;;9.95;7.60;;;;;;;;;;5017416;28;20037;-85
2022/07/22 09:35:42;;;;;;;11.10;7.85;;;;;;;;;;5016860;28;20072;-85
2022/07/22 09:38:10;;;;;;;11.35;7.72;;;;;;;;;;5001130;28;20037;-84
2022/07/22 09:40:45;;;;;;;14.02;8.25;;;;;;;;;;5016952;28;20029;-85
2022/07/22 09:43:16;;;;;;;11.80;7.30;;;;;;;;;;5035289;28;20033;-85
2022/07/22 09:45:51;;;;;;;11.27;7.75;;;;;;;;;;4999425;28;20041;-84
2022/07/22 09:48:19;;;;;;;10.65;7.18;;;;;;;;;;5016948;28;20037;-85
2022/07/22 09:50:46;;;;;;;14.18;8.18;;;;;;;;;;5034416;28;20030;-85
2022/07/22 09:53:20;;;;;;;10.50;8.23;;;;;;;;;;5034631;28;20032;-85
2022/07/22 09:56:16;;;;;;;11.10;7.40;;;;;;;;;;5019282;28;20041;-84
2022/07/22 09:58:42;;;;;;;17.85;8.15;;;;;;;;;;5017210;28;20037;-85
2022/07/22 10:01:18;;;;;;;12.75;7.32;;;;;;;;;;5016702;28;20030;-85
2022/07/22 10:03:48;;;;;;;9.77;8.02;;;;;;;;;;5016965;28;20125;-84
2022/07/22 10:06:13;;;;;;;11.63;7.53;;;;;;;;;;5033321;28;20060;-85
2022/07/22 10:08:40;;;;;;;9.52;7.32;;;;;;;;;;5016475;28;20029;-85
2022/07/22 10:11:07;;;;;;;12.18;8.05;;;;;;;;;;5018439;28;20028;-88
2022/07/22 10:13:34;;;;;;;9.10;7.75;;;;;;;;;;5016856;28;20034;-86
2022/07/22 10:16:03;;;;;;;10.90;7.43;;;;;;;;;;5016003;28;20032;-86
2022/07/22 10:18:30;;;;;;;8.30;7.03;;;;;;;;;;5016072;28;20055;-85
2022/07/22 10:21:17;;;;;;;11.40;7.50;;;;;;;;;;5017050;28;20096;-86
2022/07/22 10:24:09;;;;;;;9.07;7.32;;;;;;;;;;5016780;28;20120;-86
2022/07/22 10:26:55;;;;;;;9.15;7.00;;;;;;;;;;5016558;28;20401;-85
2022/07/22 10:29:50;;;;;;;;;;;;;;;;;;5034249;28;20033;-84
2022/07/22 10:32:16;;;;;;;10.23;7.10;;;;;;;;;;5000365;28;20424;-87
2022/07/22 10:34:43;;;;;;;11.40;7.93;;;;;;;;;;5034118;28;20029;-87
2022/07/22 10:37:34;;;;;;;8.85;7.13;;;;;;;;;;5034668;28;20041;-86
2022/07/22 10:40:25;;;;;;;10.52;7.20;;;;;;;;;;5024283;28;20049;-86
2022/07/22 10:43:00;;;;;;;8.35;7.05;;;;;;;;;;5034961;28;20044;-85
2022/07/22 10:45:50;;;;;;;11.30;7.25;;;;;;;;;;5033734;28;20033;-86
2022/07/22 10:48:19;;;;;;;9.40;7.25;;;;;;;;;;5007641;28;20046;-86
2022/07/22 10:50:49;;;;;;;9.27;6.85;;;;;;;;;;5000850;28;20482;-87
2022/07/22 10:53:52;;;;;;;7.90;6.72;;;;;;;;;;5034273;28;20025;-86
2022/07/22 10:56:27;;;;;;;8.68;6.68;;;;;;;;;;5033326;28;20024;-85
2022/07/22 10:58:55;;;;;;;8.63;6.70;;;;;;;;;;5029800;28;20033;-85
2022/07/22 11:01:24;;;;;;;8.57;6.85;;;;;;;;;;5033229;28;20036;-86
2022/07/22 11:03:50;;;;;;;12.80;6.82;;;;;;;;;;5019856;28;20037;-84
2022/07/22 11:06:20;;;;;;;9.18;6.68;;;;;;;;;;5037615;28;20104;-86
2022/07/22 11:08:47;;;;;;;11.05;6.75;;;;;;;;;;5020145;28;20468;-85
2022/07/22 11:11:14;;;;;;;9.43;6.43;;;;;;;;;;5019891;28;20176;-86
2022/07/22 11:13:41;;;;;;;11.07;6.90;;;;;;;;;;5019451;28;20040;-86
2022/07/22 11:16:33;;;;;;;8.93;6.75;;;;;;;;;;5036264;28;20045;-84
2022/07/22 11:19:02;;;;;;;9.73;6.72;;;;;;;;;;5032208;28;20066;-85
2022/07/22 11:21:32;;;;;;;12.43;6.38;;;;;;;;;;5037637;28;20021;-84
2022/07/22 11:24:01;;;;;;;10.70;6.47;;;;;;;;;;5037226;28;20045;-84
2022/07/22 11:26:44;;;;;;;8.98;6.95;;;;;;;;;;5037058;28;20044;-85
2022/07/22 11:29:15;;;;;;;8.77;6.80;;;;;;;;;;5036938;28;20139;-85
2022/07/22 11:31:41;;;;;;;9.90;6.78;;;;;;;;;;5037280;28;20029;-85
2022/07/22 11:34:15;;;;;;;11.43;7.13;;;;;;;;;;5036632;28;20109;-85
2022/07/22 11:36:45;;;;;;;11.95;7.28;;;;;;;;;;5037269;28;20041;-85
2022/07/22 11:39:13;;;;;;;8.35;6.82;;;;;;;;;;5021117;28;20033;-86
2022/07/22 11:41:39;;;;;;;10.25;6.82;;;;;;;;;;5036108;28;20490;-86
2022/07/22 11:44:06;;;;;;;8.52;6.93;;;;;;;;;;5018022;28;20056;-85
2022/07/22 11:46:40;;;;;;;7.30;6.60;;;;;;;;;;5018906;28;20152;-85
2022/07/22 11:49:07;;;;;;;14.25;6.93;;;;;;;;;;5036452;28;20120;-84
2022/07/22 11:51:34;;;;;;;8.02;6.90;;;;;;;;;;5036545;28;20544;-85
2022/07/22 11:54:00;;;;;;;11.50;6.90;;;;;;;;;;5035731;28;20036;-86
2022/07/22 11:56:27;;;;;;;9.38;7.00;;;;;;;;;;5018573;28;20029;-86
2022/07/22 11:58:54;;;;;;;9.50;6.45;;;;;;;;;;5018947;28;20430;-87
2022/07/22 12:01:22;;;;;;;10.70;7.30;;;;;;;;;;5049480;28;20032;-85
2022/07/22 12:03:51;;;;;;;8.65;6.75;;;;;;;;;;5043442;28;20040;-86
2022/07/22 12:06:18;;;;;;;9.27;6.65;;;;;;;;;;5040876;28;20037;-86
2022/07/22 12:08:51;;;;;;;8.55;6.80;;;;;;;;;;5034396;28;20673;-85
2022/07/22 12:11:18;;;;;;;9.75;6.70;;;;;;;;;;5023008;28;20418;-86
2022/07/22 12:13:46;;;;;;;9.02;7.10;;;;;;;;;;5056178;28;20028;-85
2022/07/22 12:16:21;;;;;;;9.07;6.68;;;;;;;;;;5046248;28;20042;-85
2022/07/22 12:18:58;;;;;;;11.05;6.85;;;;;;;;;;5034693;28;20030;-85
2022/07/22 12:21:26;;;;;;;9.07;6.68;;;;;;;;;;5018318;28;20029;-86
2022/07/22 12:23:55;;;;;;;6.82;6.13;;;;;;;;;;5035717;28;20033;-86
2022/07/22 12:26:38;;;;;;;9.82;6.50;;;;;;;;;;5035122;28;20390;-86
2022/07/22 12:29:18;;;;;;;8.13;6.68;;;;;;;;;;5050432;28;20048;-87
2022/07/22 12:31:53;;;;;;;11.07;7.20;;;;;;;;;;5055666;28;20051;-85
2022/07/22 12:34:30;;;;;;;8.73;7.10;;;;;;;;;;5055097;28;20416;-85
2022/07/22 12:36:56;;;;;;;9.27;6.53;;;;;;;;;;5037729;28;20029;-86
2022/07/22 12:39:22;;;;;;;9.25;7.18;;;;;;;;;;5055510;28;20400;-85
2022/07/22 12:41:53;;;;;;;7.10;6.30;;;;;;;;;;5038955;28;20040;-84
2022/07/22 12:44:24;;;;;;;8.98;6.45;;;;;;;;;;5055829;28;20060;-84
2022/07/22 12:46:54;;;;;;;8.63;7.22;;;;;;;;;;5038071;28;20136;-85
2022/07/22 12:49:24;;;;;;;10.15;7.35;;;;;;;;;;5055008;28;20508;-85
2022/07/22 12:52:08;;;;;;;8.45;7.20;;;;;;;;;;5055363;28;20385;-86
2022/07/22 12:54:35;;;;;;;9.00;7.40;;;;;;;;;;5054682;28;20063;-85
2022/07/22 12:57:03;;;;;;;10.32;7.05;;;;;;;;;;5055206;28;20063;-85
2022/07/22 12:59:29;;;;;;;9.85;7.07;;;;;;;;;;5055117;28;20457;-85
2022/07/22 13:01:54;;;;;;;9.30;7.22;;;;;;;;;;5054928;28;20082;-87
2022/07/22 13:04:20;;;;;;;8.48;6.78;;;;;;;;;;5036454;28;20064;-87
2022/07/22 13:06:45;;;;;;;9.93;7.05;;;;;;;;;;5054522;28;20068;-85
2022/07/22 13:09:11;;;;;;;9.13;7.00;;;;;;;;;;5054681;28;20401;-86
2022/07/22 13:11:39;;;;;;;9.93;6.75;;;;;;;;;;5033647;28;20029;-86
2022/07/22 13:14:08;;;;;;;10.65;7.32;;;;;;;;;;5036682;28;20037;-86
2022/07/22 13:16:33;;;;;;;8.88;6.63;;;;;;;;;;5043973;28;20025;-87
2022/07/22 13:18:59;;;;;;;10.95;6.65;;;;;;;;;;5045761;28;20108;-86
2022/07/22 13:21:24;;;;;;;9.43;6.50;;;;;;;;;;5054772;28;20047;-86
2022/07/22 13:23:50;;;;;;;8.27;6.53;;;;;;;;;;5055012;28;20470;-84
2022/07/22 13:26:15;;;;;;;9.73;6.68;;;;;;;;;;5036663;28;20095;-86
2022/07/22 13:28:41;;;;;;;11.07;6.38;;;;;;;;;;5036938;28;20405;-86
2022/07/22 13:31:08;;;;;;;9.65;6.63;;;;;;;;;;5055221;28;20072;-86
2022/07/22 13:33:33;;;;;;;7.80;6.50;;;;;;;;;;5037443;28;20029;-86
2022/07/22 13:35:59;;;;;;;8.15;6.63;;;;;;;;;;5054913;28;20112;-85
2022/07/22 13:38:25;;;;;;;9.60;6.70;;;;;;;;;;5054858;28;20040;-86
2022/07/22 13:40:51;;;;;;;9.55;6.70;;;;;;;;;;5054876;28;20020;-85
2022/07/22 13:43:21;;;;;;;9.23;6.65;;;;;;;;;;5054719;28;20041;-85
2022/07/22 13:45:46;;;;;;;8.95;6.90;;;;;;;;;;5054426;28;20036;-86
2022/07/22 13:48:12;;;;;;;10.98;7.00;;;;;;;;;;5054950;28;20043;-85
2022/07/22 13:50:37;;;;;;;9.82;6.60;;;;;;;;;;5037265;28;20037;-86
2022/07/22 13:53:03;;;;;;;8.32;6.47;;;;;;;;;;5053138;28;20056;-85
2022/07/22 13:55:30;;;;;;;8.73;6.78;;;;;;;;;;5043093;28;20390;-86
2022/07/22 13:57:57;;;;;;;11.40;6.90;;;;;;;;;;5043369;28;20086;-87
2022/07/22 14:00:23;;;;;;;7.53;6.45;;;;;;;;;;5040959;28;20032;-86
2022/07/22 14:02:49;;;;;;;8.48;6.40;;;;;;;;;;5035766;28;20099;-86
2022/07/22 14:05:15;;;;;;;8.68;6.60;;;;;;;;;;5035374;28;20033;-86
2022/07/22 14:07:41;;;;;;;9.23;6.90;;;;;;;;;;5019427;28;20037;-86
2022/07/22 14:10:07;;;;;;;8.65;6.78;;;;;;;;;;5019748;28;20056;-86
2022/07/22 14:12:32;;;;;;;8.75;6.60;;;;;;;;;;5036672;28;20034;-86
2022/07/22 14:14:58;;;;;;;10.73;6.70;;;;;;;;;;5018266;28;20044;-86
2022/07/22 14:17:23;;;;;;;7.13;6.25;;;;;;;;;;5035820;28;20033;-86
2022/07/22 14:19:49;;;;;;;8.90;6.82;;;;;;;;;;5036805;28;20029;-86
2022/07/22 14:22:15;;;;;;;10.07;6.82;;;;;;;;;;5037254;28;20402;-86
2022/07/22 14:24:40;;;;;;;9.13;6.50;;;;;;;;;;5036280;28;20048;-85
2022/07/22 14:27:06;;;;;;;11.63;7.00;;;;;;;;;;5037050;28;20033;-86
2022/07/22 14:29:31;;;;;;;12.80;6.65;;;;;;;;;;5037322;28;20461;-85
2022/07/22 14:31:57;;;;;;;9.43;6.68;;;;;;;;;;5039544;28;20025;-85
2022/07/22 14:34:22;;;;;;;9.65;6.85;;;;;;;;;;5038107;28;20033;-86
2022/07/22 14:36:48;;;;;;;10.27;6.90;;;;;;;;;;5023057;28;20044;-86
2022/07/22 14:39:13;;;;;;;8.40;6.75;;;;;;;;;;5022628;28;20685;-86
2022/07/22 14:41:39;;;;;;;8.05;6.82;;;;;;;;;;5022792;28;20038;-85
2022/07/22 14:44:04;;;;;;;8.15;6.55;;;;;;;;;;5039778;28;20044;-86
2022/07/22 14:46:30;;;;;;;7.50;6.68;;;;;;;;;;5040117;28;20042;-86
2022/07/22 14:48:56;;;;;;;8.50;6.60;;;;;;;;;;5038710;28;20037;-86
2022/07/22 14:51:22;;;;;;;9.40;6.80;;;;;;;;;;5039786;28;20033;-85